createdAt,value
2018-07-31T00:00:48.970Z,36.78
2018-07-31T00:01:48.927Z,36.88
2018-07-31T00:02:48.893Z,36.68
2018-07-31T00:03:48.846Z,36.78
2018-07-31T00:04:48.817Z,36.68
2018-07-31T00:05:48.764Z,36.58
2018-07-31T00:06:48.723Z,36.68
2018-07-31T00:07:48.683Z,36.68
2018-07-31T00:08:48.644Z,36.66
2018-07-31T00:09:48.601Z,36.68
2018-07-31T00:10:48.560Z,36.68
2018-07-31T00:11:48.519Z,36.78
2018-07-31T00:12:48.486Z,36.76
2018-07-31T00:13:48.439Z,36.66
2018-07-31T00:14:48.400Z,36.86
2018-07-31T00:15:48.357Z,36.98
2018-07-31T00:16:48.317Z,37.05
2018-07-31T00:17:48.275Z,36.96
2018-07-31T00:18:48.234Z,36.96
2018-07-31T00:19:48.194Z,37.05
2018-07-31T00:20:48.153Z,37.05
2018-07-31T00:21:48.112Z,36.86
2018-07-31T00:22:48.071Z,37.17
2018-07-31T00:23:48.032Z,37.05
2018-07-31T00:24:47.993Z,37.15
2018-07-31T00:25:47.951Z,36.96
2018-07-31T00:26:47.911Z,37.15
2018-07-31T00:27:47.870Z,37.15
2018-07-31T00:28:47.826Z,37.15
2018-07-31T00:29:47.785Z,37.17
2018-07-31T00:30:47.745Z,37.07
2018-07-31T00:31:47.704Z,37.17
2018-07-31T00:32:47.664Z,37.15
2018-07-31T00:33:47.622Z,37.27
2018-07-31T00:34:47.581Z,37.45
2018-07-31T00:35:47.541Z,37.35
2018-07-31T00:36:47.500Z,37.15
2018-07-31T00:37:47.458Z,37.54
2018-07-31T00:38:47.418Z,37.05
2018-07-31T00:39:47.377Z,37.27
2018-07-31T00:40:47.339Z,37.35
2018-07-31T00:41:47.295Z,37.73
2018-07-31T00:42:47.254Z,37.75
2018-07-31T00:43:47.214Z,37.54
2018-07-31T00:44:47.174Z,37.83
2018-07-31T00:45:47.132Z,37.63
2018-07-31T00:46:47.092Z,37.73
2018-07-31T00:47:47.053Z,37.35
2018-07-31T00:48:47.010Z,37.45
2018-07-31T00:49:46.968Z,37.54
2018-07-31T00:50:46.928Z,37.73
2018-07-31T00:51:46.888Z,37.45
2018-07-31T00:52:46.846Z,37.54
2018-07-31T00:53:46.854Z,37.45
2018-07-31T00:54:46.793Z,37.35
2018-07-31T00:55:46.724Z,37.35
2018-07-31T00:56:46.693Z,37.35
2018-07-31T00:57:46.641Z,37.63
2018-07-31T00:58:46.604Z,37.93
2018-07-31T00:59:46.560Z,37.63
2018-07-31T01:00:46.519Z,37.63
2018-07-31T01:01:46.477Z,37.63
2018-07-31T01:02:46.437Z,37.63
2018-07-31T01:03:46.396Z,37.83
2018-07-31T01:04:46.361Z,37.93
2018-07-31T01:05:46.313Z,37.93
2018-07-31T01:06:46.274Z,38.02
2018-07-31T01:07:46.233Z,37.93
2018-07-31T01:08:46.192Z,38.02
2018-07-31T01:09:46.154Z,37.45
2018-07-31T01:10:46.110Z,37.54
2018-07-31T01:11:46.069Z,37.45
2018-07-31T01:12:46.029Z,37.54
2018-07-31T01:13:45.989Z,37.54
2018-07-31T01:14:45.946Z,37.54
2018-07-31T01:15:45.906Z,37.45
2018-07-31T01:16:45.864Z,37.83
2018-07-31T01:17:45.822Z,38.02
2018-07-31T01:18:45.782Z,37.93
2018-07-31T01:19:45.742Z,38.12
2018-07-31T01:20:45.702Z,37.63
2018-07-31T01:21:45.659Z,37.54
2018-07-31T01:22:45.618Z,37.83
2018-07-31T01:23:45.578Z,37.93
2018-07-31T01:24:45.538Z,37.83
2018-07-31T01:25:45.495Z,37.54
2018-07-31T01:26:45.455Z,37.73
2018-07-31T01:27:45.414Z,37.93
2018-07-31T01:28:45.375Z,37.63
2018-07-31T01:29:45.332Z,37.73
2018-07-31T01:30:45.291Z,37.93
2018-07-31T01:31:45.250Z,37.83
2018-07-31T01:32:45.209Z,37.73
2018-07-31T01:33:45.168Z,37.83
2018-07-31T01:34:45.129Z,37.73
2018-07-31T01:35:45.087Z,37.83
2018-07-31T01:36:45.046Z,37.83
2018-07-31T01:37:45.004Z,37.63
2018-07-31T01:38:44.965Z,37.73
2018-07-31T01:39:44.922Z,37.73
2018-07-31T01:40:44.882Z,37.73
2018-07-31T01:41:44.840Z,37.93
2018-07-31T01:42:44.799Z,37.73
2018-07-31T01:43:44.759Z,37.83
2018-07-31T01:44:44.718Z,37.73
2018-07-31T01:45:44.704Z,37.63
2018-07-31T01:46:44.635Z,37.63
2018-07-31T01:47:44.594Z,37.63
2018-07-31T01:48:44.554Z,37.63
2018-07-31T01:49:44.512Z,37.83
2018-07-31T01:50:44.471Z,37.73
2018-07-31T01:51:44.430Z,37.73
2018-07-31T01:52:44.389Z,37.93
2018-07-31T01:53:44.349Z,37.93
2018-07-31T01:54:44.307Z,37.93
2018-07-31T01:55:44.266Z,38.02
2018-07-31T01:56:44.225Z,38.12
2018-07-31T01:57:44.183Z,37.93
2018-07-31T01:58:44.143Z,37.93
2018-07-31T01:59:44.124Z,38.02
2018-07-31T02:00:44.061Z,38.22
2018-07-31T02:01:44.020Z,38.02
2018-07-31T02:02:43.979Z,37.93
2018-07-31T02:03:43.938Z,38.02
2018-07-31T02:04:43.897Z,38.02
2018-07-31T02:05:43.856Z,38.12
2018-07-31T02:06:43.815Z,38.12
2018-07-31T02:07:43.783Z,38.12
2018-07-31T02:08:43.733Z,38.12
2018-07-31T02:09:43.691Z,38.22
2018-07-31T02:10:43.650Z,38.12
2018-07-31T02:11:43.609Z,38.12
2018-07-31T02:12:43.570Z,38.20
2018-07-31T02:13:43.527Z,38.02
2018-07-31T02:14:43.486Z,38.10
2018-07-31T02:15:43.447Z,38.30
2018-07-31T02:16:43.405Z,38.30
2018-07-31T02:17:43.363Z,38.20
2018-07-31T02:18:43.328Z,38.01
2018-07-31T02:19:43.282Z,38.10
2018-07-31T02:20:43.240Z,38.30
2018-07-31T02:21:43.199Z,38.10
2018-07-31T02:22:43.157Z,38.20
2018-07-31T02:23:43.117Z,38.10
2018-07-31T02:24:43.088Z,37.91
2018-07-31T02:25:43.037Z,37.81
2018-07-31T02:26:42.993Z,38.30
2018-07-31T02:27:42.952Z,38.01
2018-07-31T02:28:42.967Z,38.61
2018-07-31T02:29:42.870Z,38.40
2018-07-31T02:30:42.829Z,37.81
2018-07-31T02:31:42.789Z,38.12
2018-07-31T02:32:42.746Z,38.20
2018-07-31T02:33:42.705Z,38.30
2018-07-31T02:34:42.669Z,38.40
2018-07-31T02:35:42.623Z,38.42
2018-07-31T02:36:42.582Z,38.22
2018-07-31T02:37:42.544Z,38.40
2018-07-31T02:38:42.506Z,38.40
2018-07-31T02:39:42.458Z,38.42
2018-07-31T02:40:42.418Z,38.32
2018-07-31T02:41:42.376Z,38.32
2018-07-31T02:42:42.335Z,38.32
2018-07-31T02:43:42.294Z,38.51
2018-07-31T02:44:42.253Z,38.61
2018-07-31T02:45:42.211Z,38.42
2018-07-31T02:46:42.189Z,38.42
2018-07-31T02:47:42.129Z,38.42
2018-07-31T02:48:42.089Z,38.42
2018-07-31T02:49:42.052Z,38.12
2018-07-31T02:50:42.005Z,38.40
2018-07-31T02:51:41.970Z,38.42
2018-07-31T02:52:41.925Z,38.32
2018-07-31T02:53:41.881Z,38.40
2018-07-31T02:54:41.845Z,38.12
2018-07-31T02:55:41.799Z,38.32
2018-07-31T02:56:41.759Z,38.30
2018-07-31T02:57:41.720Z,38.59
2018-07-31T02:58:41.676Z,38.32
2018-07-31T02:59:41.637Z,38.20
2018-07-31T03:00:41.594Z,38.32
2018-07-31T03:01:41.555Z,38.49
2018-07-31T03:02:41.513Z,38.59
2018-07-31T03:03:41.470Z,38.30
2018-07-31T03:04:41.429Z,38.30
2018-07-31T03:05:41.389Z,38.30
2018-07-31T03:06:41.351Z,38.49
2018-07-31T03:07:41.305Z,38.30
2018-07-31T03:08:41.265Z,38.40
2018-07-31T03:09:41.223Z,38.49
2018-07-31T03:10:41.188Z,38.59
2018-07-31T03:11:41.142Z,38.69
2018-07-31T03:12:41.101Z,38.59
2018-07-31T03:13:41.060Z,38.71
2018-07-31T03:14:41.017Z,38.20
2018-07-31T03:15:40.976Z,38.51
2018-07-31T03:16:40.946Z,38.51
2018-07-31T03:17:40.905Z,38.22
2018-07-31T03:18:40.852Z,38.42
2018-07-31T03:19:40.830Z,38.42
2018-07-31T03:20:40.771Z,38.42
2018-07-31T03:21:40.729Z,38.51
2018-07-31T03:22:40.689Z,38.32
2018-07-31T03:23:40.646Z,38.51
2018-07-31T03:24:40.605Z,38.61
2018-07-31T03:25:40.563Z,38.51
2018-07-31T03:26:40.522Z,38.61
2018-07-31T03:27:40.481Z,38.42
2018-07-31T03:28:40.441Z,38.71
2018-07-31T03:29:40.405Z,38.42
2018-07-31T03:30:40.358Z,38.42
2018-07-31T03:31:40.317Z,38.32
2018-07-31T03:32:40.276Z,38.61
2018-07-31T03:33:40.233Z,38.61
2018-07-31T03:34:40.192Z,38.42
2018-07-31T03:35:40.152Z,38.71
2018-07-31T03:36:40.110Z,38.42
2018-07-31T03:37:40.070Z,38.42
2018-07-31T03:38:40.027Z,38.32
2018-07-31T03:39:39.987Z,38.61
2018-07-31T03:40:39.945Z,38.61
2018-07-31T03:41:39.903Z,38.51
2018-07-31T03:42:39.863Z,38.61
2018-07-31T03:43:39.821Z,38.42
2018-07-31T03:44:39.781Z,38.61
2018-07-31T03:45:39.740Z,38.61
2018-07-31T03:46:39.697Z,38.42
2018-07-31T03:47:39.656Z,38.32
2018-07-31T03:48:39.615Z,38.59
2018-07-31T03:49:39.573Z,38.59
2018-07-31T03:50:39.532Z,38.40
2018-07-31T03:51:39.491Z,38.59
2018-07-31T03:52:39.450Z,38.40
2018-07-31T03:53:39.407Z,38.10
2018-07-31T03:54:39.367Z,38.59
2018-07-31T03:55:39.383Z,38.59
2018-07-31T03:56:39.285Z,38.59
2018-07-31T03:57:39.243Z,38.59
2018-07-31T03:58:39.201Z,38.20
2018-07-31T03:59:39.160Z,38.69
2018-07-31T04:00:39.120Z,38.79
2018-07-31T04:01:39.077Z,38.69
2018-07-31T04:02:39.036Z,38.49
2018-07-31T04:03:38.995Z,38.79
2018-07-31T04:04:38.995Z,38.79
2018-07-31T04:05:38.916Z,38.69
2018-07-31T04:06:38.871Z,38.69
2018-07-31T04:07:38.830Z,38.89
2018-07-31T04:08:38.789Z,38.79
2018-07-31T04:09:38.746Z,38.89
2018-07-31T04:10:38.706Z,38.79
2018-07-31T04:11:38.665Z,38.81
2018-07-31T04:12:38.624Z,38.79
2018-07-31T04:13:38.582Z,38.69
2018-07-31T04:14:38.541Z,38.81
2018-07-31T04:15:38.500Z,38.69
2018-07-31T04:16:38.459Z,38.71
2018-07-31T04:17:38.417Z,38.79
2018-07-31T04:18:38.378Z,38.69
2018-07-31T04:19:38.336Z,38.59
2018-07-31T04:20:38.293Z,38.71
2018-07-31T04:21:38.252Z,38.49
2018-07-31T04:22:38.210Z,38.71
2018-07-31T04:23:38.169Z,38.69
2018-07-31T04:24:38.128Z,38.61
2018-07-31T04:25:38.087Z,38.42
2018-07-31T04:26:38.050Z,38.59
2018-07-31T04:27:38.008Z,38.40
2018-07-31T04:28:37.966Z,38.69
2018-07-31T04:29:37.971Z,38.59
2018-07-31T04:30:37.880Z,38.59
2018-07-31T04:31:37.839Z,38.59
2018-07-31T04:32:37.798Z,38.61
2018-07-31T04:33:37.757Z,38.61
2018-07-31T04:34:37.715Z,38.30
2018-07-31T04:35:37.677Z,38.69
2018-07-31T04:36:37.636Z,38.42
2018-07-31T04:37:37.591Z,38.51
2018-07-31T04:38:37.549Z,38.71
2018-07-31T04:39:37.508Z,38.61
2018-07-31T04:40:37.470Z,38.61
2018-07-31T04:41:37.425Z,38.51
2018-07-31T04:42:37.385Z,38.51
2018-07-31T04:43:37.343Z,38.51
2018-07-31T04:44:37.302Z,38.61
2018-07-31T04:45:37.260Z,38.42
2018-07-31T04:46:37.219Z,38.61
2018-07-31T04:47:37.177Z,38.42
2018-07-31T04:48:37.141Z,38.42
2018-07-31T04:49:37.094Z,38.51
2018-07-31T04:50:37.054Z,38.61
2018-07-31T04:51:37.012Z,38.61
2018-07-31T04:52:36.971Z,38.42
2018-07-31T04:53:36.929Z,38.61
2018-07-31T04:54:36.888Z,38.22
2018-07-31T04:55:36.847Z,38.32
2018-07-31T04:56:36.821Z,38.61
2018-07-31T04:57:36.763Z,38.42
2018-07-31T04:58:36.723Z,38.32
2018-07-31T04:59:36.695Z,38.32
2018-07-31T05:00:36.640Z,38.12
2018-07-31T05:01:36.598Z,38.42
2018-07-31T05:02:36.557Z,38.51
2018-07-31T05:03:36.516Z,38.04
2018-07-31T05:04:36.475Z,37.95
2018-07-31T05:05:36.433Z,38.34
2018-07-31T05:06:36.392Z,37.95
2018-07-31T05:07:36.351Z,37.46
2018-07-31T05:08:36.310Z,37.55
2018-07-31T05:09:36.268Z,37.57
2018-07-31T05:10:36.226Z,37.29
2018-07-31T05:11:36.186Z,36.82
2018-07-31T05:12:36.145Z,36.82
2018-07-31T05:13:36.102Z,36.63
2018-07-31T05:14:36.062Z,36.24
2018-07-31T05:15:36.020Z,35.95
2018-07-31T05:16:35.979Z,35.58
2018-07-31T05:17:35.956Z,35.58
2018-07-31T05:18:35.896Z,35.48
2018-07-31T05:19:35.856Z,35.11
2018-07-31T05:20:35.815Z,34.91
2018-07-31T05:21:35.773Z,35.01
2018-07-31T05:22:35.732Z,34.33
2018-07-31T05:23:35.691Z,34.44
2018-07-31T05:24:35.650Z,34.14
2018-07-31T05:25:35.609Z,33.95
2018-07-31T05:26:35.568Z,33.58
2018-07-31T05:27:35.527Z,33.67
2018-07-31T05:28:35.486Z,32.99
2018-07-31T05:29:35.445Z,33.29
2018-07-31T05:30:35.404Z,33.10
2018-07-31T05:31:35.364Z,32.81
2018-07-31T05:32:35.403Z,32.81
2018-07-31T05:33:35.281Z,32.61
2018-07-31T05:34:35.241Z,32.42
2018-07-31T05:35:35.200Z,32.71
2018-07-31T05:36:35.160Z,32.43
2018-07-31T05:37:35.118Z,32.63
2018-07-31T05:38:35.078Z,32.43
2018-07-31T05:39:35.038Z,32.04
2018-07-31T05:40:35.001Z,31.96
2018-07-31T05:41:34.956Z,31.76
2018-07-31T05:42:34.919Z,31.47
2018-07-31T05:43:34.875Z,31.57
2018-07-31T05:44:34.834Z,31.47
2018-07-31T05:45:34.793Z,31.77
2018-07-31T05:46:34.753Z,31.77
2018-07-31T05:47:34.712Z,31.87
2018-07-31T05:48:34.674Z,31.29
2018-07-31T05:49:34.632Z,31.29
2018-07-31T05:50:34.592Z,31.09
2018-07-31T05:51:34.551Z,31.19
2018-07-31T05:52:34.512Z,31.38
2018-07-31T05:53:34.469Z,31.30
2018-07-31T05:54:34.431Z,31.30
2018-07-31T05:55:34.389Z,31.40
2018-07-31T05:56:34.349Z,31.50
2018-07-31T05:57:34.308Z,31.30
2018-07-31T05:58:34.268Z,31.40
2018-07-31T05:59:34.262Z,31.70
2018-07-31T06:00:34.188Z,31.50
2018-07-31T06:01:34.147Z,31.20
2018-07-31T06:02:34.157Z,31.10
2018-07-31T06:03:34.128Z,31.30
2018-07-31T06:04:34.027Z,31.20
2018-07-31T06:05:33.986Z,31.22
2018-07-31T06:06:33.946Z,31.02
2018-07-31T06:07:33.907Z,30.93
2018-07-31T06:08:33.866Z,30.53
2018-07-31T06:09:33.860Z,30.82
2018-07-31T06:10:33.786Z,30.63
2018-07-31T06:11:33.746Z,30.82
2018-07-31T06:12:33.706Z,30.33
2018-07-31T06:13:33.666Z,30.35
2018-07-31T06:14:33.626Z,30.25
2018-07-31T06:15:33.588Z,30.65
2018-07-31T06:16:33.546Z,30.63
2018-07-31T06:17:33.506Z,30.55
2018-07-31T06:18:33.466Z,30.74
2018-07-31T06:19:33.426Z,30.55
2018-07-31T06:20:33.387Z,30.74
2018-07-31T06:21:33.346Z,30.45
2018-07-31T06:22:33.306Z,30.15
2018-07-31T06:23:33.267Z,30.25
2018-07-31T06:24:33.227Z,30.25
2018-07-31T06:25:33.244Z,30.45
2018-07-31T06:26:33.147Z,30.65
2018-07-31T06:27:33.108Z,30.27
2018-07-31T06:28:33.069Z,30.25
2018-07-31T06:29:33.049Z,30.56
2018-07-31T06:30:32.988Z,30.36
2018-07-31T06:31:32.951Z,30.17
2018-07-31T06:32:32.909Z,30.17
2018-07-31T06:33:32.869Z,30.07
2018-07-31T06:34:32.833Z,29.97
2018-07-31T06:35:32.790Z,29.77
2018-07-31T06:36:32.750Z,29.97
2018-07-31T06:37:32.711Z,29.99
2018-07-31T06:38:32.670Z,29.68
2018-07-31T06:39:32.631Z,29.58
2018-07-31T06:40:32.619Z,29.48
2018-07-31T06:41:32.554Z,29.59
2018-07-31T06:42:32.512Z,29.39
2018-07-31T06:43:32.569Z,29.59
2018-07-31T06:44:32.433Z,29.69
2018-07-31T06:45:32.393Z,29.10
2018-07-31T06:46:32.354Z,29.20
2018-07-31T06:47:32.314Z,29.39
2018-07-31T06:48:32.275Z,29.39
2018-07-31T06:49:32.235Z,29.20
2018-07-31T06:50:32.195Z,29.21
2018-07-31T06:51:32.156Z,29.11
2018-07-31T06:52:32.117Z,29.31
2018-07-31T06:53:32.077Z,29.11
2018-07-31T06:54:32.038Z,28.83
2018-07-31T06:55:32.000Z,29.03
2018-07-31T06:56:31.959Z,28.93
2018-07-31T06:57:31.918Z,28.74
2018-07-31T06:58:31.882Z,28.16
2018-07-31T06:59:31.840Z,28.26
2018-07-31T07:00:31.801Z,28.16
2018-07-31T07:01:31.785Z,27.87
2018-07-31T07:02:31.722Z,27.58
2018-07-31T07:03:31.682Z,27.87
2018-07-31T07:04:31.646Z,27.59
2018-07-31T07:05:31.604Z,27.40
2018-07-31T07:06:31.564Z,27.30
2018-07-31T07:07:31.526Z,26.72
2018-07-31T07:08:31.490Z,26.72
2018-07-31T07:09:31.446Z,26.54
2018-07-31T07:10:31.407Z,26.24
2018-07-31T07:11:31.368Z,26.24
2018-07-31T07:12:31.328Z,26.15
2018-07-31T07:13:31.289Z,25.96
2018-07-31T07:14:31.251Z,25.48
2018-07-31T07:15:31.240Z,25.09
2018-07-31T07:16:31.175Z,25.29
2018-07-31T07:17:31.131Z,25.31
2018-07-31T07:18:31.093Z,25.01
2018-07-31T07:19:31.054Z,24.32
2018-07-31T07:20:31.015Z,24.62
2018-07-31T07:21:30.975Z,24.03
2018-07-31T07:22:30.940Z,24.44
2018-07-31T07:23:30.896Z,23.65
2018-07-31T07:24:30.858Z,23.75
2018-07-31T07:25:30.818Z,23.66
2018-07-31T07:26:30.781Z,23.46
2018-07-31T07:27:30.789Z,22.97
2018-07-31T07:28:30.701Z,22.88
2018-07-31T07:29:30.663Z,22.89
2018-07-31T07:30:30.623Z,22.69
2018-07-31T07:31:30.588Z,23.10
2018-07-31T07:32:30.546Z,22.40
2018-07-31T07:33:30.515Z,22.20
2018-07-31T07:34:30.472Z,22.41
2018-07-31T07:35:30.428Z,21.62
2018-07-31T07:36:30.389Z,21.62
2018-07-31T07:37:30.350Z,21.23
2018-07-31T07:38:30.311Z,21.54
2018-07-31T07:39:30.272Z,21.54
2018-07-31T07:40:30.234Z,21.04
2018-07-31T07:41:30.194Z,21.24
2018-07-31T07:42:30.155Z,20.76
2018-07-31T07:43:30.116Z,20.65
2018-07-31T07:44:30.079Z,21.05
2018-07-31T07:45:30.040Z,20.67
2018-07-31T07:46:30.001Z,20.67
2018-07-31T07:47:29.961Z,20.57
2018-07-31T07:48:29.944Z,20.48
2018-07-31T07:49:29.912Z,20.18
2018-07-31T07:50:29.845Z,19.89
2018-07-31T07:51:29.806Z,20.39
2018-07-31T07:52:29.768Z,20.10
2018-07-31T07:53:29.729Z,19.60
2018-07-31T07:54:29.690Z,19.60
2018-07-31T07:55:29.653Z,19.31
2018-07-31T07:56:29.614Z,19.41
2018-07-31T07:57:29.574Z,19.21
2018-07-31T07:58:29.536Z,19.42
2018-07-31T07:59:29.498Z,19.22
2018-07-31T08:00:29.513Z,19.02
2018-07-31T08:01:29.420Z,18.63
2018-07-31T08:02:29.382Z,18.62
2018-07-31T08:03:29.344Z,18.52
2018-07-31T08:04:29.306Z,18.43
2018-07-31T08:05:29.267Z,18.63
2018-07-31T08:06:29.228Z,18.63
2018-07-31T08:07:29.191Z,18.84
2018-07-31T08:08:29.153Z,18.93
2018-07-31T08:09:29.117Z,18.73
2018-07-31T08:10:29.076Z,18.84
2018-07-31T08:11:29.038Z,18.73
2018-07-31T08:12:29.001Z,18.54
2018-07-31T08:13:28.961Z,18.44
2018-07-31T08:14:28.923Z,17.85
2018-07-31T08:15:28.885Z,17.94
2018-07-31T08:16:28.848Z,18.05
2018-07-31T08:17:28.854Z,17.76
2018-07-31T08:18:28.772Z,17.85
2018-07-31T08:19:28.734Z,17.95
2018-07-31T08:20:28.719Z,17.65
2018-07-31T08:21:28.658Z,17.36
2018-07-31T08:22:28.668Z,17.36
2018-07-31T08:23:28.582Z,17.36
2018-07-31T08:24:28.545Z,17.56
2018-07-31T08:25:28.507Z,17.36
2018-07-31T08:26:28.472Z,17.26
2018-07-31T08:27:28.432Z,16.96
2018-07-31T08:28:28.395Z,17.27
2018-07-31T08:29:28.360Z,17.07
2018-07-31T08:30:28.319Z,17.26
2018-07-31T08:31:28.281Z,17.16
2018-07-31T08:32:28.244Z,17.16
2018-07-31T08:33:28.208Z,17.26
2018-07-31T08:34:28.235Z,17.17
2018-07-31T08:35:28.132Z,17.26
2018-07-31T08:36:28.096Z,17.07
2018-07-31T08:37:28.057Z,17.26
2018-07-31T08:38:28.020Z,17.36
2018-07-31T08:39:27.982Z,17.07
2018-07-31T08:40:27.946Z,17.07
2018-07-31T08:41:27.950Z,17.26
2018-07-31T08:42:27.872Z,17.25
2018-07-31T08:43:27.840Z,17.46
2018-07-31T08:44:27.797Z,17.65
2018-07-31T08:45:27.759Z,17.55
2018-07-31T08:46:27.722Z,17.55
2018-07-31T08:47:27.689Z,17.25
2018-07-31T08:48:27.671Z,17.16
2018-07-31T08:49:27.611Z,17.05
2018-07-31T08:50:27.574Z,17.05
2018-07-31T08:51:27.538Z,17.26
2018-07-31T08:52:27.502Z,17.55
2018-07-31T08:53:27.465Z,17.36
2018-07-31T08:54:27.427Z,17.36
2018-07-31T08:55:27.393Z,17.25
2018-07-31T08:56:27.354Z,17.46
2018-07-31T08:57:27.317Z,17.35
2018-07-31T08:58:27.280Z,17.16
2018-07-31T08:59:27.244Z,17.36
2018-07-31T09:00:27.208Z,17.35
2018-07-31T09:01:27.170Z,17.25
2018-07-31T09:02:27.134Z,17.25
2018-07-31T09:03:27.100Z,17.05
2018-07-31T09:04:27.062Z,17.35
2018-07-31T09:05:27.025Z,17.55
2018-07-31T09:06:26.988Z,17.25
2018-07-31T09:07:26.952Z,17.35
2018-07-31T09:08:27.067Z,17.34
2018-07-31T09:09:26.879Z,17.24
2018-07-31T09:10:26.843Z,17.44
2018-07-31T09:11:26.807Z,17.94
2018-07-31T09:12:26.773Z,17.83
2018-07-31T09:13:26.733Z,17.83
2018-07-31T09:14:26.697Z,17.83
2018-07-31T09:15:26.661Z,17.93
2018-07-31T09:16:26.625Z,17.92
2018-07-31T09:17:26.620Z,17.72
2018-07-31T09:18:26.552Z,18.22
2018-07-31T09:19:26.516Z,18.41
2018-07-31T09:20:26.484Z,18.60
2018-07-31T09:21:26.443Z,18.80
2018-07-31T09:22:26.458Z,18.50
2018-07-31T09:23:26.372Z,18.49
2018-07-31T09:24:26.399Z,18.99
2018-07-31T09:25:26.298Z,19.09
2018-07-31T09:26:26.267Z,19.38
2018-07-31T09:27:26.233Z,19.37
2018-07-31T09:28:26.191Z,19.37
2018-07-31T09:29:26.154Z,19.46
2018-07-31T09:30:26.149Z,19.56
2018-07-31T09:31:26.083Z,20.15
2018-07-31T09:32:26.046Z,20.24
2018-07-31T09:33:26.013Z,20.63
2018-07-31T09:34:25.972Z,20.53
2018-07-31T09:35:25.955Z,20.52
2018-07-31T09:36:25.919Z,20.70
2018-07-31T09:37:25.863Z,21.00
2018-07-31T09:38:25.828Z,21.49
2018-07-31T09:39:25.791Z,21.67
2018-07-31T09:40:25.756Z,22.16
2018-07-31T09:41:25.718Z,22.74
2018-07-31T09:42:25.682Z,23.41
2018-07-31T09:43:25.645Z,23.50
2018-07-31T09:44:25.610Z,23.88
2018-07-31T09:45:25.572Z,24.28
2018-07-31T09:46:25.536Z,24.16
2018-07-31T09:47:25.499Z,24.85
2018-07-31T09:48:25.464Z,25.23
2018-07-31T09:49:25.484Z,25.51
2018-07-31T09:50:25.389Z,25.81
2018-07-31T09:51:25.352Z,26.09
2018-07-31T09:52:25.316Z,26.09
2018-07-31T09:53:25.279Z,26.47
2018-07-31T09:54:25.242Z,26.95
2018-07-31T09:55:25.205Z,26.95
2018-07-31T09:56:25.172Z,26.95
2018-07-31T09:57:25.130Z,27.33
2018-07-31T09:58:25.099Z,27.62
2018-07-31T09:59:25.065Z,27.62
2018-07-31T10:00:25.020Z,27.81
2018-07-31T10:01:24.982Z,28.00
2018-07-31T10:02:24.944Z,28.00
2018-07-31T10:03:24.906Z,28.19
2018-07-31T10:04:24.871Z,28.49
2018-07-31T10:05:24.944Z,28.58
2018-07-31T10:06:24.795Z,28.78
2018-07-31T10:07:24.756Z,28.97
2018-07-31T10:08:24.719Z,29.16
2018-07-31T10:09:24.680Z,29.16
2018-07-31T10:10:24.643Z,29.25
2018-07-31T10:11:24.605Z,29.16
2018-07-31T10:12:24.568Z,29.16
2018-07-31T10:13:24.529Z,29.16
2018-07-31T10:14:24.496Z,29.16
2018-07-31T10:15:24.454Z,29.85
2018-07-31T10:16:24.415Z,29.44
2018-07-31T10:17:24.378Z,29.44
2018-07-31T10:18:24.340Z,29.53
2018-07-31T10:19:24.309Z,30.02
2018-07-31T10:20:24.265Z,30.02
2018-07-31T10:21:24.225Z,30.12
2018-07-31T10:22:24.188Z,30.02
2018-07-31T10:23:24.150Z,30.32
2018-07-31T10:24:24.134Z,30.12
2018-07-31T10:25:24.075Z,30.32
2018-07-31T10:26:24.042Z,30.12
2018-07-31T10:27:23.997Z,30.32
2018-07-31T10:28:23.960Z,30.62
2018-07-31T10:29:23.921Z,30.50
2018-07-31T10:30:23.887Z,30.42
2018-07-31T10:31:23.845Z,30.42
2018-07-31T10:32:23.811Z,30.12
2018-07-31T10:33:23.768Z,30.50
2018-07-31T10:34:23.731Z,30.70
2018-07-31T10:35:23.693Z,30.81
2018-07-31T10:36:23.654Z,30.60
2018-07-31T10:37:23.636Z,30.70
2018-07-31T10:38:23.578Z,30.60
2018-07-31T10:39:23.540Z,30.40
2018-07-31T10:40:23.502Z,30.60
2018-07-31T10:41:23.563Z,30.60
2018-07-31T10:42:23.425Z,30.70
2018-07-31T10:43:23.387Z,30.80
2018-07-31T10:44:23.350Z,30.70
2018-07-31T10:45:23.312Z,30.50
2018-07-31T10:46:23.274Z,30.50
2018-07-31T10:47:23.234Z,30.40
2018-07-31T10:48:23.197Z,30.50
2018-07-31T10:49:23.157Z,30.58
2018-07-31T10:50:23.121Z,30.50
2018-07-31T10:51:23.081Z,30.50
2018-07-31T10:52:23.043Z,30.29
2018-07-31T10:53:23.004Z,30.39
2018-07-31T10:54:22.971Z,30.30
2018-07-31T10:55:22.927Z,30.29
2018-07-31T10:56:22.889Z,30.19
2018-07-31T10:57:22.850Z,30.29
2018-07-31T10:58:22.850Z,30.29
2018-07-31T10:59:22.774Z,30.29
2018-07-31T11:00:22.841Z,30.49
2018-07-31T11:01:22.701Z,30.29
2018-07-31T11:02:22.658Z,30.19
2018-07-31T11:03:22.621Z,30.19
2018-07-31T11:04:22.667Z,30.19
2018-07-31T11:05:22.544Z,30.29
2018-07-31T11:06:22.581Z,30.19
2018-07-31T11:07:22.467Z,30.29
2018-07-31T11:08:22.429Z,30.29
2018-07-31T11:09:22.390Z,30.19
2018-07-31T11:10:22.365Z,30.19
2018-07-31T11:11:22.313Z,30.10
2018-07-31T11:12:22.275Z,30.10
2018-07-31T11:13:22.324Z,30.29
2018-07-31T11:14:22.198Z,30.29
2018-07-31T11:15:22.213Z,30.19
2018-07-31T11:16:22.122Z,30.29
2018-07-31T11:17:22.083Z,30.19
2018-07-31T11:18:22.050Z,30.29
2018-07-31T11:19:22.006Z,30.27
2018-07-31T11:20:21.968Z,30.37
2018-07-31T11:21:21.985Z,30.18
2018-07-31T11:22:21.890Z,30.18
2018-07-31T11:23:21.852Z,30.18
2018-07-31T11:24:21.815Z,30.29
2018-07-31T11:25:21.775Z,30.29
2018-07-31T11:26:21.737Z,30.68
2018-07-31T11:27:21.720Z,30.27
2018-07-31T11:28:21.659Z,30.37
2018-07-31T11:29:21.621Z,30.87
2018-07-31T11:30:21.583Z,30.37
2018-07-31T11:31:21.547Z,30.18
2018-07-31T11:32:21.505Z,30.67
2018-07-31T11:33:21.566Z,30.67
2018-07-31T11:34:21.432Z,30.57
2018-07-31T11:35:21.393Z,30.67
2018-07-31T11:36:21.351Z,30.67
2018-07-31T11:37:21.312Z,30.67
2018-07-31T11:38:21.275Z,30.27
2018-07-31T11:39:21.235Z,30.67
2018-07-31T11:40:21.197Z,30.57
2018-07-31T11:41:21.157Z,30.67
2018-07-31T11:42:21.119Z,30.27
2018-07-31T11:43:21.081Z,30.67
2018-07-31T11:44:21.042Z,30.77
2018-07-31T11:45:21.005Z,30.67
2018-07-31T11:46:20.968Z,30.67
2018-07-31T11:47:20.926Z,30.27
2018-07-31T11:48:20.888Z,30.57
2018-07-31T11:49:20.848Z,30.67
2018-07-31T11:50:20.810Z,30.67
2018-07-31T11:51:20.772Z,30.67
2018-07-31T11:52:20.733Z,30.67
2018-07-31T11:53:20.694Z,30.67
2018-07-31T11:54:20.656Z,30.67
2018-07-31T11:55:20.617Z,30.18
2018-07-31T11:56:20.583Z,30.18
2018-07-31T11:57:20.538Z,30.08
2018-07-31T11:58:20.501Z,30.67
2018-07-31T11:59:20.463Z,30.08
2018-07-31T12:00:20.424Z,30.18
2018-07-31T12:01:20.391Z,30.18
2018-07-31T12:02:20.346Z,30.18
2018-07-31T12:03:20.308Z,30.77
2018-07-31T12:04:20.329Z,30.18
2018-07-31T12:05:20.230Z,30.27
2018-07-31T12:06:20.198Z,30.27
2018-07-31T12:07:20.154Z,30.57
2018-07-31T12:08:20.115Z,30.85
2018-07-31T12:09:20.077Z,30.57
2018-07-31T12:10:20.037Z,30.07
2018-07-31T12:11:19.999Z,30.27
2018-07-31T12:12:19.960Z,30.55
2018-07-31T12:13:19.921Z,30.27
2018-07-31T12:14:19.884Z,30.75
2018-07-31T12:15:19.849Z,30.55
2018-07-31T12:16:19.806Z,30.07
2018-07-31T12:17:19.766Z,30.18
2018-07-31T12:18:19.728Z,30.08
2018-07-31T12:19:19.693Z,30.26
2018-07-31T12:20:19.662Z,30.07
2018-07-31T12:21:19.611Z,30.26
2018-07-31T12:22:19.578Z,30.16
2018-07-31T12:23:19.534Z,30.18
2018-07-31T12:24:19.503Z,30.07
2018-07-31T12:25:19.459Z,30.18
2018-07-31T12:26:19.418Z,30.27
2018-07-31T12:27:19.380Z,30.16
2018-07-31T12:28:19.341Z,30.16
2018-07-31T12:29:19.302Z,30.16
2018-07-31T12:30:19.263Z,30.16
2018-07-31T12:31:19.225Z,30.16
2018-07-31T12:32:19.187Z,30.26
2018-07-31T12:33:19.147Z,30.26
2018-07-31T12:34:19.108Z,30.07
2018-07-31T12:35:19.070Z,30.26
2018-07-31T12:36:19.031Z,30.36
2018-07-31T12:37:18.992Z,30.26
2018-07-31T12:38:19.001Z,30.65
2018-07-31T12:39:18.915Z,30.65
2018-07-31T12:40:18.883Z,30.65
2018-07-31T12:41:18.838Z,30.46
2018-07-31T12:42:18.799Z,30.75
2018-07-31T12:43:18.760Z,30.55
2018-07-31T12:44:18.725Z,30.65
2018-07-31T12:45:18.682Z,30.55
2018-07-31T12:46:18.643Z,30.65
2018-07-31T12:47:18.605Z,30.65
2018-07-31T12:48:18.566Z,30.65
2018-07-31T12:49:18.527Z,30.55
2018-07-31T12:50:18.491Z,30.65
2018-07-31T12:51:18.451Z,30.55
2018-07-31T12:52:18.416Z,30.65